Time;durP1;ratioP1;P1;durP2;ratioP2;P2;SDS_P1;SDS_P2;PMS_P1;PMS_P2;Temp;Humidity;BMP_temperature;BMP_pressure;BME280_temperature;BME280_humidity;BME280_pressure;Samples;Min_cycle;Max_cycle;Signal;HPM_P1;HPM_P2
2023/05/16 00:00:16;;;;;;;13.00;2.53;;;10.20;99.90;;;;;;5045005;28;20033;-71
2023/05/16 00:02:42;;;;;;;16.85;2.58;;;10.20;99.90;;;;;;5033653;28;20142;-70
2023/05/16 00:05:09;;;;;;;15.85;2.65;;;10.10;99.90;;;;;;5033427;28;20137;-71
2023/05/16 00:07:35;;;;;;;11.82;1.88;;;10.10;99.90;;;;;;5038864;28;20037;-71
2023/05/16 00:10:02;;;;;;;12.57;2.40;;;10.10;99.90;;;;;;5052722;28;20041;-71
2023/05/16 00:12:28;;;;;;;12.38;2.10;;;10.10;99.90;;;;;;5052423;28;20056;-71
2023/05/16 00:14:54;;;;;;;10.05;2.00;;;10.10;99.90;;;;;;5053513;28;20051;-71
2023/05/16 00:17:20;;;;;;;11.15;1.98;;;10.10;99.90;;;;;;5051227;28;20384;-72
2023/05/16 00:19:47;;;;;;;10.70;2.15;;;10.10;99.90;;;;;;5048854;28;20393;-72
2023/05/16 00:22:17;;;;;;;16.80;2.40;;;10.00;99.90;;;;;;5031917;28;20387;-71
2023/05/16 00:24:43;;;;;;;16.20;2.63;;;10.10;99.90;;;;;;5033555;28;20038;-72
2023/05/16 00:27:08;;;;;;;11.43;2.22;;;10.10;99.90;;;;;;5033875;28;20040;-72
2023/05/16 00:29:34;;;;;;;13.05;2.30;;;10.10;99.90;;;;;;5035737;28;20048;-72
2023/05/16 00:32:00;;;;;;;13.05;2.30;;;10.00;99.90;;;;;;5053236;28;20412;-72
2023/05/16 00:34:26;;;;;;;14.25;2.40;;;10.10;99.90;;;;;;5053122;28;20045;-73
2023/05/16 00:36:52;;;;;;;17.05;3.20;;;10.00;99.90;;;;;;5053274;28;20129;-72
2023/05/16 00:39:18;;;;;;;12.90;2.05;;;10.00;99.90;;;;;;5033788;28;20045;-72
2023/05/16 00:41:44;;;;;;;10.68;2.17;;;9.90;99.90;;;;;;5037400;28;20033;-72
2023/05/16 00:44:10;;;;;;;15.02;2.58;;;9.90;99.90;;;;;;5053073;28;20047;-71
2023/05/16 00:46:36;;;;;;;12.02;2.20;;;9.90;99.90;;;;;;5051737;28;20037;-72
2023/05/16 00:49:02;;;;;;;13.32;2.10;;;9.80;99.90;;;;;;5051827;28;20029;-73
2023/05/16 00:51:28;;;;;;;9.20;1.60;;;9.80;99.90;;;;;;5032368;28;20056;-72
2023/05/16 00:53:54;;;;;;;11.55;2.63;;;9.80;99.90;;;;;;5046174;28;20037;-72
2023/05/16 00:56:20;;;;;;;10.77;2.05;;;9.70;99.90;;;;;;5053001;28;20033;-73
2023/05/16 00:58:46;;;;;;;13.23;1.70;;;9.70;99.90;;;;;;5037713;28;20034;-73
2023/05/16 01:01:13;;;;;;;13.13;2.08;;;9.70;99.90;;;;;;5031524;28;20034;-72
2023/05/16 01:03:38;;;;;;;7.93;1.45;;;9.70;99.90;;;;;;5034840;28;20061;-73
2023/05/16 01:06:05;;;;;;;11.32;2.00;;;9.60;99.90;;;;;;5052117;28;20029;-71
2023/05/16 01:08:30;;;;;;;13.93;2.22;;;9.60;99.90;;;;;;5050848;28;20108;-71
2023/05/16 01:11:30;;;;;;;10.43;2.50;;;9.60;99.90;;;;;;5052850;28;20171;-72
2023/05/16 01:14:27;;;;;;;10.38;1.98;;;9.50;99.90;;;;;;5053026;28;20115;-73
2023/05/16 01:17:02;;;;;;;11.15;1.98;;;9.50;99.90;;;;;;5048389;28;20046;-71
2023/05/16 01:19:27;;;;;;;11.32;1.75;;;9.50;99.90;;;;;;5045658;28;20041;-72
2023/05/16 01:22:05;;;;;;;11.73;2.15;;;9.40;99.90;;;;;;5038614;28;20096;-72
2023/05/16 01:24:49;;;;;;;10.38;2.35;;;9.50;99.90;;;;;;5038969;28;20478;-73
2023/05/16 01:27:16;;;;;;;9.13;1.75;;;9.40;99.90;;;;;;5052467;28;20037;-73
2023/05/16 01:29:41;;;;;;;11.38;2.03;;;9.40;99.90;;;;;;5055567;28;20040;-73
2023/05/16 01:32:07;;;;;;;12.65;1.50;;;9.40;99.90;;;;;;5040076;28;20055;-72
2023/05/16 01:34:32;;;;;;;14.23;1.95;;;9.30;99.90;;;;;;5036523;28;20073;-72
2023/05/16 01:37:08;;;;;;;11.57;1.60;;;9.30;99.90;;;;;;5036340;28;20041;-73
2023/05/16 01:39:44;;;;;;;11.48;1.63;;;9.40;99.90;;;;;;5035500;28;20041;-73
2023/05/16 01:42:14;;;;;;;11.88;1.92;;;9.30;99.90;;;;;;5036097;28;20053;-72
2023/05/16 01:44:44;;;;;;;10.45;2.15;;;9.30;99.90;;;;;;5053655;28;20041;-72
2023/05/16 01:47:15;;;;;;;8.55;1.52;;;9.30;99.90;;;;;;5055302;28;20456;-72
2023/05/16 01:50:09;;;;;;;7.55;1.48;;;9.30;99.90;;;;;;5055126;28;20049;-72
2023/05/16 01:52:37;;;;;;;10.00;1.67;;;9.20;99.90;;;;;;5035879;28;20053;-72
2023/05/16 01:55:08;;;;;;;12.45;1.90;;;9.20;99.90;;;;;;5052863;28;20041;-72
2023/05/16 01:57:35;;;;;;;13.27;2.22;;;9.10;99.90;;;;;;5035470;28;20033;-71
2023/05/16 02:00:00;;;;;;;8.02;1.40;;;9.10;99.90;;;;;;5035946;28;20075;-71
2023/05/16 02:02:26;;;;;;;10.80;1.40;;;9.10;99.90;;;;;;5036142;28;20050;-71
2023/05/16 02:04:51;;;;;;;8.68;2.00;;;9.10;99.90;;;;;;5043952;28;20082;-72
2023/05/16 02:07:18;;;;;;;8.63;1.60;;;9.20;99.90;;;;;;5041552;28;20096;-71
2023/05/16 02:09:43;;;;;;;7.78;1.67;;;9.10;99.90;;;;;;5045389;28;20036;-71
2023/05/16 02:12:09;;;;;;;6.43;1.80;;;9.10;99.90;;;;;;5040473;28;20041;-71
2023/05/16 02:14:34;;;;;;;11.20;1.60;;;9.10;99.90;;;;;;5035744;28;20037;-72
2023/05/16 02:17:00;;;;;;;9.88;1.65;;;9.10;99.90;;;;;;5046599;28;20516;-71
2023/05/16 02:19:25;;;;;;;7.75;1.40;;;9.10;99.90;;;;;;5053282;28;20119;-71
2023/05/16 02:21:51;;;;;;;9.00;1.70;;;9.10;99.90;;;;;;5042400;28;20585;-71
2023/05/16 02:24:16;;;;;;;8.02;1.40;;;9.10;99.90;;;;;;5046936;28;20041;-70
2023/05/16 02:26:42;;;;;;;7.68;1.25;;;9.10;99.90;;;;;;5050785;28;20043;-71
2023/05/16 02:29:08;;;;;;;8.75;1.70;;;9.10;99.90;;;;;;5036076;28;20559;-72
2023/05/16 02:31:34;;;;;;;7.82;1.40;;;9.00;99.90;;;;;;5051995;28;20409;-72
2023/05/16 02:34:00;;;;;;;8.30;1.60;;;9.00;99.90;;;;;;5036888;28;20036;-70
2023/05/16 02:36:26;;;;;;;9.38;1.65;;;8.90;99.90;;;;;;5052526;28;20036;-71
2023/05/16 02:38:51;;;;;;;9.52;1.35;;;8.90;99.90;;;;;;5040601;28;20045;-71
2023/05/16 02:41:17;;;;;;;8.93;1.60;;;8.80;99.90;;;;;;5045143;28;20025;-70
2023/05/16 02:43:43;;;;;;;8.45;1.63;;;8.80;99.90;;;;;;5051724;28;20516;-71
2023/05/16 02:46:29;;;;;;;7.40;1.50;;;8.70;99.90;;;;;;5055123;28;20086;-71
2023/05/16 02:48:55;;;;;;;9.10;1.88;;;8.70;99.90;;;;;;5054483;28;20033;-71
2023/05/16 02:51:22;;;;;;;7.05;1.60;;;8.70;99.90;;;;;;5054149;28;20041;-73
2023/05/16 02:53:48;;;;;;;9.65;2.20;;;8.70;99.90;;;;;;5055023;28;20063;-72
2023/05/16 02:56:14;;;;;;;10.85;1.85;;;8.70;99.90;;;;;;5037271;28;20545;-72
2023/05/16 02:58:40;;;;;;;13.05;2.22;;;8.70;99.90;;;;;;5037561;28;20125;-72
2023/05/16 03:01:06;;;;;;;9.43;1.38;;;8.80;99.90;;;;;;5052965;28;20041;-72
2023/05/16 03:03:34;;;;;;;7.63;1.55;;;8.80;99.90;;;;;;5053908;28;20371;-72
2023/05/16 03:06:00;;;;;;;7.57;1.55;;;8.80;99.90;;;;;;5052575;28;20090;-72
2023/05/16 03:08:25;;;;;;;10.02;1.60;;;8.80;99.90;;;;;;5055158;28;20436;-71
2023/05/16 03:10:51;;;;;;;9.07;1.67;;;8.80;99.90;;;;;;5053867;28;20044;-72
2023/05/16 03:13:17;;;;;;;9.77;2.05;;;8.90;99.90;;;;;;5053403;28;20044;-72
2023/05/16 03:15:42;;;;;;;10.93;2.22;;;8.90;99.90;;;;;;5053958;28;20473;-71
2023/05/16 03:18:08;;;;;;;8.60;1.75;;;8.90;99.90;;;;;;5054563;28;20041;-71
2023/05/16 03:20:33;;;;;;;9.90;1.63;;;8.80;99.90;;;;;;5053592;28;20079;-72
2023/05/16 03:22:59;;;;;;;6.70;1.35;;;8.80;99.90;;;;;;5054377;28;20044;-72
2023/05/16 03:25:25;;;;;;;8.05;1.50;;;8.80;99.90;;;;;;5066916;28;20071;-72
2023/05/16 03:27:51;;;;;;;12.30;1.92;;;8.80;99.90;;;;;;5054336;28;20041;-72
2023/05/16 03:30:18;;;;;;;9.63;1.60;;;8.70;99.90;;;;;;5053487;28;20052;-73
2023/05/16 03:32:45;;;;;;;10.70;2.20;;;8.80;99.90;;;;;;5054280;28;20051;-71
2023/05/16 03:35:36;;;;;;;8.75;1.80;;;8.80;99.90;;;;;;5054203;28;20083;-72
2023/05/16 03:38:02;;;;;;;13.25;1.90;;;8.70;99.90;;;;;;5034157;28;20493;-73
2023/05/16 03:40:27;;;;;;;9.68;1.85;;;8.70;99.90;;;;;;5042385;28;20512;-73
2023/05/16 03:42:53;;;;;;;12.02;1.80;;;8.80;99.90;;;;;;5053403;28;20044;-71
2023/05/16 03:45:18;;;;;;;10.23;1.80;;;8.70;99.90;;;;;;5049723;28;20041;-71
2023/05/16 03:47:44;;;;;;;8.02;1.85;;;8.70;99.90;;;;;;5053051;28;20079;-72
2023/05/16 03:50:10;;;;;;;11.65;2.03;;;8.70;99.90;;;;;;5036580;28;20033;-71
2023/05/16 03:52:36;;;;;;;11.10;1.67;;;8.70;99.90;;;;;;5036972;28;20063;-71
2023/05/16 03:55:03;;;;;;;7.90;1.85;;;8.70;99.90;;;;;;5067698;28;20543;-70
2023/05/16 03:57:32;;;;;;;9.25;1.83;;;8.70;99.90;;;;;;5034526;28;20400;-70
2023/05/16 03:59:58;;;;;;;11.05;1.75;;;8.60;99.90;;;;;;5038986;28;20041;-69
2023/05/16 04:02:24;;;;;;;8.07;1.60;;;8.60;99.90;;;;;;5052686;28;20094;-70
2023/05/16 04:04:50;;;;;;;10.23;1.70;;;8.60;99.90;;;;;;5038079;28;20562;-70
2023/05/16 04:07:15;;;;;;;11.85;1.80;;;8.60;99.90;;;;;;5053595;28;20037;-69
2023/05/16 04:09:41;;;;;;;15.48;2.15;;;8.60;99.90;;;;;;5052292;28;20059;-70
2023/05/16 04:12:07;;;;;;;10.18;1.85;;;8.60;99.90;;;;;;5051438;28;20044;-70
2023/05/16 04:14:33;;;;;;;8.43;1.58;;;8.60;99.90;;;;;;5054093;28;20037;-70
2023/05/16 04:16:59;;;;;;;9.95;2.15;;;8.60;99.90;;;;;;5039465;28;20076;-70
2023/05/16 04:19:25;;;;;;;8.35;1.60;;;8.60;99.90;;;;;;5036441;28;20074;-70
2023/05/16 04:21:51;;;;;;;8.40;1.65;;;8.60;99.90;;;;;;5052468;28;20050;-71
2023/05/16 04:24:16;;;;;;;7.57;1.55;;;8.60;99.90;;;;;;5053565;28;20090;-69
2023/05/16 04:26:42;;;;;;;10.18;1.58;;;8.60;99.90;;;;;;5034082;28;20044;-71
2023/05/16 04:29:08;;;;;;;9.25;1.80;;;8.50;99.90;;;;;;5033102;28;20033;-71
2023/05/16 04:31:33;;;;;;;6.40;1.80;;;8.60;99.90;;;;;;5053015;28;20044;-71
2023/05/16 04:34:00;;;;;;;9.07;1.60;;;8.60;99.90;;;;;;5052582;28;20041;-71
2023/05/16 04:36:29;;;;;;;11.25;2.45;;;8.50;99.90;;;;;;5068690;28;20036;-72
2023/05/16 04:38:55;;;;;;;14.07;2.17;;;8.60;99.90;;;;;;5038884;28;20033;-71
2023/05/16 04:41:21;;;;;;;10.45;1.80;;;8.60;99.90;;;;;;5048520;28;20036;-71
2023/05/16 04:43:47;;;;;;;10.95;1.90;;;8.60;99.90;;;;;;5068478;28;20040;-71
2023/05/16 04:46:14;;;;;;;7.68;1.63;;;8.60;99.90;;;;;;5033322;28;20116;-72
2023/05/16 04:48:40;;;;;;;11.68;2.17;;;8.70;99.90;;;;;;5053693;28;20056;-71
2023/05/16 04:51:06;;;;;;;10.02;1.80;;;8.70;99.90;;;;;;5051308;28;20041;-70
2023/05/16 04:53:32;;;;;;;9.30;1.77;;;8.70;99.90;;;;;;5068566;28;20041;-71
2023/05/16 04:55:58;;;;;;;8.75;1.80;;;8.70;99.90;;;;;;5051918;28;20037;-70
2023/05/16 04:58:24;;;;;;;12.57;2.35;;;8.80;99.90;;;;;;5051672;28;20045;-71
2023/05/16 05:00:54;;;;;;;13.85;1.98;;;8.80;99.90;;;;;;5049302;28;20045;-71
2023/05/16 05:03:20;;;;;;;8.75;1.77;;;8.80;99.90;;;;;;5043705;28;20041;-71
2023/05/16 05:05:46;;;;;;;8.68;1.80;;;8.90;99.90;;;;;;5052015;28;20409;-72
2023/05/16 05:08:12;;;;;;;10.88;1.67;;;9.00;99.90;;;;;;5048391;28;20040;-71
2023/05/16 05:10:38;;;;;;;14.73;1.83;;;9.00;99.90;;;;;;5051333;28;20029;-73
2023/05/16 05:13:04;;;;;;;11.68;2.05;;;9.10;99.90;;;;;;5039649;28;20389;-71
2023/05/16 05:15:30;;;;;;;11.88;2.17;;;9.10;99.90;;;;;;5053049;28;20039;-71
2023/05/16 05:17:55;;;;;;;13.55;1.83;;;9.30;99.90;;;;;;5047348;28;20079;-71
2023/05/16 05:20:21;;;;;;;8.43;1.80;;;9.30;99.90;;;;;;5032315;28;20491;-71
2023/05/16 05:22:47;;;;;;;10.48;2.00;;;9.50;99.90;;;;;;5018534;28;20060;-71
2023/05/16 05:25:13;;;;;;;11.55;2.10;;;9.50;99.90;;;;;;5034357;28;20065;-71
2023/05/16 05:27:39;;;;;;;10.05;2.13;;;9.60;99.90;;;;;;5052643;28;20083;-70
2023/05/16 05:30:08;;;;;;;12.85;3.13;;;9.60;99.90;;;;;;5051720;28;20044;-72
2023/05/16 05:32:33;;;;;;;9.35;1.77;;;9.60;99.90;;;;;;5035953;28;20037;-71
2023/05/16 05:34:59;;;;;;;8.93;1.88;;;9.60;99.90;;;;;;5032755;28;20046;-71
2023/05/16 05:37:25;;;;;;;8.25;2.05;;;9.70;99.90;;;;;;5047098;28;20037;-72
2023/05/16 05:39:51;;;;;;;9.25;1.80;;;9.80;99.90;;;;;;5053144;28;20393;-73
2023/05/16 05:42:17;;;;;;;10.52;1.50;;;9.80;99.90;;;;;;5051681;28;20048;-72
2023/05/16 05:44:42;;;;;;;7.28;1.30;;;9.90;99.90;;;;;;5066549;28;20032;-72
2023/05/16 05:47:08;;;;;;;11.82;1.88;;;9.90;99.90;;;;;;5032799;28;20037;-72
2023/05/16 05:49:34;;;;;;;13.73;2.45;;;9.90;99.90;;;;;;5034140;28;20030;-72
2023/05/16 05:52:00;;;;;;;7.13;1.60;;;10.00;99.90;;;;;;5052421;28;20053;-72
2023/05/16 05:54:26;;;;;;;14.52;2.20;;;10.10;99.90;;;;;;5051612;28;20390;-72
2023/05/16 05:56:51;;;;;;;13.48;2.00;;;10.10;99.90;;;;;;5052888;28;20117;-72
2023/05/16 05:59:17;;;;;;;10.25;1.77;;;10.10;99.90;;;;;;5051564;28;20362;-71
2023/05/16 06:01:43;;;;;;;8.52;1.80;;;10.30;99.90;;;;;;5049977;28;20037;-72
2023/05/16 06:04:09;;;;;;;11.85;2.25;;;10.30;99.90;;;;;;5071416;28;20112;-72
2023/05/16 06:06:36;;;;;;;12.02;2.25;;;10.40;99.90;;;;;;5055007;28;20040;-71
2023/05/16 06:09:02;;;;;;;10.93;1.70;;;10.40;99.90;;;;;;5056014;28;20041;-71
2023/05/16 06:11:27;;;;;;;6.78;1.65;;;10.60;99.90;;;;;;5054877;28;20040;-71
2023/05/16 06:13:53;;;;;;;9.93;1.90;;;10.60;99.90;;;;;;5061468;28;20067;-72
2023/05/16 06:16:22;;;;;;;12.27;1.90;;;10.70;99.90;;;;;;5047209;28;20048;-72
2023/05/16 06:18:48;;;;;;;9.43;2.70;;;10.80;99.90;;;;;;5037160;28;20528;-73
2023/05/16 06:21:14;;;;;;;7.57;1.88;;;10.90;99.90;;;;;;5053145;28;20037;-74
2023/05/16 06:23:39;;;;;;;8.65;1.90;;;11.00;99.90;;;;;;5055624;28;20400;-71
2023/05/16 06:26:05;;;;;;;6.82;1.23;;;11.00;99.90;;;;;;5044194;28;20060;-71
2023/05/16 06:28:30;;;;;;;9.32;1.77;;;10.90;99.90;;;;;;5035562;28;20489;-71
2023/05/16 06:30:56;;;;;;;10.18;2.05;;;10.80;99.90;;;;;;5045179;28;20082;-72
2023/05/16 06:33:22;;;;;;;7.57;1.52;;;10.70;99.90;;;;;;5070950;28;20140;-72
2023/05/16 06:35:47;;;;;;;11.95;1.95;;;10.70;99.90;;;;;;5051652;28;20165;-72
2023/05/16 06:38:14;;;;;;;10.85;1.70;;;10.80;99.90;;;;;;5050886;28;20112;-72
2023/05/16 06:40:39;;;;;;;13.68;2.17;;;10.90;99.90;;;;;;5048285;28;20083;-72
2023/05/16 06:43:05;;;;;;;10.75;1.85;;;11.00;99.90;;;;;;5043600;28;20069;-72
2023/05/16 06:45:31;;;;;;;10.63;1.92;;;11.00;99.90;;;;;;5040939;28;20033;-72
2023/05/16 06:47:57;;;;;;;13.43;1.67;;;11.20;99.90;;;;;;5036107;28;20037;-72
2023/05/16 06:50:22;;;;;;;7.30;1.33;;;11.30;99.90;;;;;;5042299;28;20111;-72
2023/05/16 06:52:48;;;;;;;8.95;1.52;;;11.40;99.90;;;;;;5054982;28;20151;-72
2023/05/16 06:55:15;;;;;;;8.40;1.40;;;11.50;99.90;;;;;;5054938;28;20049;-72
2023/05/16 06:57:41;;;;;;;6.55;1.10;;;11.40;99.90;;;;;;5036493;28;20045;-72
2023/05/16 07:00:07;;;;;;;5.82;1.10;;;11.70;99.90;;;;;;5053951;28;20057;-72
2023/05/16 07:02:33;;;;;;;3.50;0.90;;;11.70;99.90;;;;;;5054067;28;20037;-72
2023/05/16 07:04:58;;;;;;;3.97;0.75;;;11.80;99.90;;;;;;5054982;28;20041;-72
2023/05/16 07:07:24;;;;;;;4.25;1.02;;;11.80;99.90;;;;;;5054006;28;20041;-73
2023/05/16 07:09:50;;;;;;;5.35;1.02;;;12.00;99.90;;;;;;5049092;28;20041;-72
2023/05/16 07:12:16;;;;;;;10.10;1.23;;;12.00;99.90;;;;;;5034719;28;20038;-72
2023/05/16 07:14:42;;;;;;;5.70;1.40;;;12.00;99.90;;;;;;5054258;28;20498;-73
2023/05/16 07:17:08;;;;;;;8.75;1.65;;;12.00;99.90;;;;;;5050843;28;20053;-73
2023/05/16 07:19:34;;;;;;;8.05;1.13;;;12.10;99.90;;;;;;5054616;28;20033;-72
2023/05/16 07:21:59;;;;;;;4.55;1.20;;;12.10;99.90;;;;;;5054373;28;20093;-73
2023/05/16 07:24:25;;;;;;;5.18;1.00;;;12.00;99.90;;;;;;5054439;28;20059;-73
2023/05/16 07:26:51;;;;;;;7.68;1.30;;;12.00;99.90;;;;;;5070107;28;20072;-73
2023/05/16 07:29:17;;;;;;;7.00;1.42;;;11.90;99.90;;;;;;5054527;28;20047;-72
2023/05/16 07:31:42;;;;;;;6.65;1.08;;;12.00;99.90;;;;;;5054477;28;20378;-73
2023/05/16 07:34:09;;;;;;;6.85;1.05;;;12.10;99.90;;;;;;5054431;28;20037;-73
2023/05/16 07:36:35;;;;;;;12.57;1.77;;;12.20;99.90;;;;;;5054384;28;20091;-72
2023/05/16 07:39:01;;;;;;;5.75;1.35;;;12.30;99.90;;;;;;5054193;28;20401;-72
2023/05/16 07:41:27;;;;;;;5.35;1.17;;;12.30;99.90;;;;;;5054275;28;20421;-72
2023/05/16 07:43:53;;;;;;;6.28;1.42;;;12.10;99.90;;;;;;5054180;28;20041;-72
2023/05/16 07:46:18;;;;;;;9.52;1.50;;;11.90;99.90;;;;;;5054125;28;20086;-73
2023/05/16 07:48:44;;;;;;;9.77;1.40;;;11.80;99.90;;;;;;5052996;28;20425;-72
2023/05/16 07:51:10;;;;;;;5.72;1.20;;;11.70;99.90;;;;;;5052585;28;20045;-72
2023/05/16 07:53:35;;;;;;;12.15;1.55;;;11.90;99.90;;;;;;5054027;28;20041;-72
2023/05/16 07:56:01;;;;;;;10.68;1.40;;;12.00;99.90;;;;;;5052711;28;20509;-73
2023/05/16 07:58:26;;;;;;;8.82;1.42;;;12.20;99.90;;;;;;5053868;28;20098;-72
2023/05/16 08:00:52;;;;;;;6.93;1.23;;;12.30;99.90;;;;;;5052719;28;20078;-73
2023/05/16 08:03:17;;;;;;;8.95;1.63;;;12.50;99.90;;;;;;5052550;28;20037;-72
2023/05/16 08:05:43;;;;;;;5.97;1.13;;;12.50;99.90;;;;;;5053755;28;20048;-73
2023/05/16 08:08:09;;;;;;;12.10;2.63;;;12.60;99.90;;;;;;5053624;28;20080;-73
2023/05/16 08:10:34;;;;;;;11.02;1.83;;;12.70;99.90;;;;;;5053876;28;20064;-73
2023/05/16 08:13:00;;;;;;;12.07;1.60;;;12.80;99.90;;;;;;5052630;28;20048;-73
2023/05/16 08:15:27;;;;;;;10.90;1.95;;;12.80;99.90;;;;;;5052683;28;20041;-73
2023/05/16 08:17:57;;;;;;;11.68;1.90;;;12.70;99.90;;;;;;5053647;28;20040;-72
2023/05/16 08:20:23;;;;;;;12.07;2.08;;;12.80;99.90;;;;;;5053545;28;20041;-72
2023/05/16 08:22:48;;;;;;;9.90;1.33;;;12.80;99.90;;;;;;5035621;28;20048;-73
2023/05/16 08:25:14;;;;;;;8.70;1.40;;;13.00;99.90;;;;;;5053217;28;20040;-73
2023/05/16 08:27:39;;;;;;;7.00;1.48;;;13.00;99.90;;;;;;5053568;28;20058;-72
2023/05/16 08:30:06;;;;;;;12.98;1.73;;;12.90;99.90;;;;;;5053487;28;20041;-72
2023/05/16 08:32:31;;;;;;;8.50;1.63;;;12.80;99.90;;;;;;5053156;28;20075;-73
2023/05/16 08:34:57;;;;;;;8.20;1.30;;;12.90;99.90;;;;;;5053416;28;20068;-73
2023/05/16 08:37:22;;;;;;;8.20;1.40;;;13.00;99.90;;;;;;5053203;28;20044;-73
2023/05/16 08:39:48;;;;;;;7.60;1.38;;;13.10;99.90;;;;;;5053145;28;20032;-73
2023/05/16 08:42:14;;;;;;;11.13;1.58;;;13.30;99.90;;;;;;5050830;28;20123;-73
2023/05/16 08:44:39;;;;;;;9.55;1.30;;;13.30;99.90;;;;;;5046996;28;20512;-73
2023/05/16 08:47:15;;;;;;;8.63;1.75;;;13.20;99.90;;;;;;5033193;28;20069;-73
2023/05/16 08:49:43;;;;;;;10.20;1.55;;;13.00;99.90;;;;;;5015988;28;20045;-73
2023/05/16 08:52:10;;;;;;;8.35;1.55;;;12.80;99.90;;;;;;5033051;28;20053;-72
2023/05/16 08:54:36;;;;;;;8.52;1.52;;;12.90;99.90;;;;;;5033293;28;20053;-72
2023/05/16 08:57:03;;;;;;;8.07;1.45;;;12.80;99.90;;;;;;5033317;28;20401;-73
2023/05/16 08:59:30;;;;;;;5.45;1.15;;;12.70;99.90;;;;;;5032068;28;20076;-73
2023/05/16 09:01:56;;;;;;;11.20;1.20;;;12.70;99.90;;;;;;5034321;28;20091;-74
2023/05/16 09:04:24;;;;;;;7.00;1.63;;;12.90;99.90;;;;;;5040077;28;20048;-74
2023/05/16 09:06:50;;;;;;;8.27;1.50;;;13.20;99.90;;;;;;5041755;28;20520;-72
2023/05/16 09:09:15;;;;;;;6.53;1.45;;;13.40;99.90;;;;;;5038311;28;20049;-74
2023/05/16 09:11:41;;;;;;;6.18;1.55;;;13.50;99.90;;;;;;5032672;28;20478;-73
2023/05/16 09:14:07;;;;;;;8.60;1.55;;;13.70;99.90;;;;;;5038577;28;20042;-73
2023/05/16 09:16:32;;;;;;;6.82;0.95;;;13.60;99.90;;;;;;5024900;28;20045;-73
2023/05/16 09:19:00;;;;;;;8.10;1.17;;;13.40;99.90;;;;;;5044741;28;20072;-73
2023/05/16 09:21:27;;;;;;;8.60;1.40;;;13.30;99.90;;;;;;5034728;28;20038;-70
2023/05/16 09:23:53;;;;;;;9.63;1.35;;;13.50;99.90;;;;;;5047719;28;20041;-74
2023/05/16 09:26:20;;;;;;;7.03;1.30;;;13.60;99.90;;;;;;5046136;28;20031;-73
2023/05/16 09:28:46;;;;;;;9.80;1.35;;;13.90;99.90;;;;;;5037478;28;20486;-73
2023/05/16 09:31:25;;;;;;;6.32;1.23;;;14.10;99.90;;;;;;5034858;28;20028;-78
2023/05/16 09:33:57;;;;;;;9.40;1.55;;;14.20;99.90;;;;;;5049725;28;20115;-74
2023/05/16 09:36:22;;;;;;;8.50;1.10;;;14.30;99.90;;;;;;5051045;28;20083;-73
2023/05/16 09:38:52;;;;;;;8.52;1.50;;;14.10;99.90;;;;;;5054995;28;20033;-73
2023/05/16 09:41:17;;;;;;;10.00;1.77;;;14.30;99.90;;;;;;5055370;28;20409;-74
2023/05/16 09:43:43;;;;;;;8.32;1.30;;;14.30;99.90;;;;;;5041434;28;20053;-73
2023/05/16 09:46:14;;;;;;;6.30;1.40;;;14.30;99.90;;;;;;5052058;28;20124;-73
2023/05/16 09:48:51;;;;;;;3.92;0.82;;;14.40;99.90;;;;;;5043286;28;20505;-72
2023/05/16 09:51:21;;;;;;;5.88;1.10;;;14.50;99.90;;;;;;5054441;28;20037;-74
2023/05/16 09:53:47;;;;;;;8.73;1.45;;;14.60;99.90;;;;;;5040668;28;20045;-73
2023/05/16 09:56:14;;;;;;;9.30;1.25;;;14.70;99.90;;;;;;5054652;28;20044;-73
2023/05/16 09:58:42;;;;;;;7.60;1.33;;;14.90;99.90;;;;;;5053575;28;20049;-73
2023/05/16 10:01:09;;;;;;;6.28;1.20;;;14.60;99.90;;;;;;5055255;28;20041;-73
2023/05/16 10:03:36;;;;;;;7.05;1.48;;;14.70;99.90;;;;;;5051839;28;20041;-73
2023/05/16 10:06:04;;;;;;;9.43;1.75;;;14.50;99.90;;;;;;5052212;28;20441;-74
2023/05/16 10:08:31;;;;;;;5.70;1.13;;;14.60;99.90;;;;;;5049496;28;20033;-73
2023/05/16 10:10:57;;;;;;;6.57;1.17;;;14.80;99.90;;;;;;5044470;28;20041;-73
2023/05/16 10:13:30;;;;;;;8.02;1.40;;;14.90;99.90;;;;;;5043661;28;20048;-73
2023/05/16 10:15:58;;;;;;;7.82;1.20;;;14.80;99.90;;;;;;5049991;28;20401;-73
2023/05/16 10:18:28;;;;;;;8.40;1.30;;;14.60;99.90;;;;;;5049372;28;20435;-74
2023/05/16 10:20:57;;;;;;;9.32;1.50;;;14.40;99.90;;;;;;5053963;28;20175;-73
2023/05/16 10:23:24;;;;;;;11.50;1.80;;;14.30;99.90;;;;;;5050430;28;20044;-73
2023/05/16 10:25:51;;;;;;;6.97;1.40;;;14.30;99.90;;;;;;5037356;28;20041;-73
2023/05/16 10:28:17;;;;;;;8.15;1.20;;;14.30;99.90;;;;;;5051961;28;20048;-75
2023/05/16 10:30:45;;;;;;;6.85;1.00;;;14.40;99.90;;;;;;5054321;28;20076;-74
2023/05/16 10:33:12;;;;;;;8.13;1.05;;;14.40;99.90;;;;;;5053587;28;20056;-73
2023/05/16 10:35:38;;;;;;;5.90;1.15;;;14.60;99.90;;;;;;5038763;28;20504;-73
2023/05/16 10:38:06;;;;;;;5.90;1.20;;;14.80;99.90;;;;;;5049011;28;20037;-74
2023/05/16 10:40:32;;;;;;;8.93;1.48;;;14.90;99.90;;;;;;5052777;28;20072;-74
2023/05/16 10:43:03;;;;;;;7.35;1.50;;;14.90;99.90;;;;;;5051764;28;20102;-74
2023/05/16 10:45:29;;;;;;;5.93;1.20;;;15.00;99.90;;;;;;5053033;28;20721;-73
2023/05/16 10:47:57;;;;;;;8.80;1.60;;;15.20;99.90;;;;;;5051762;28;20037;-74
2023/05/16 10:50:32;;;;;;;9.07;1.20;;;15.10;99.90;;;;;;5052844;28;20045;-74
2023/05/16 10:53:31;;;;;;;11.07;2.25;;;14.90;99.90;;;;;;5053609;28;20111;-74
2023/05/16 10:56:00;;;;;;;8.88;1.33;;;15.00;99.90;;;;;;5022946;28;20053;-74
2023/05/16 10:58:39;;;;;;;7.15;1.15;;;15.00;99.90;;;;;;5052737;28;20122;-74
2023/05/16 11:01:21;;;;;;;7.40;1.35;;;15.00;99.90;;;;;;5050093;28;20055;-74
2023/05/16 11:03:59;;;;;;;5.95;0.98;;;15.00;99.90;;;;;;5036703;28;20076;-74
2023/05/16 11:06:26;;;;;;;5.53;1.05;;;14.90;99.90;;;;;;5042354;28;20038;-74
2023/05/16 11:09:10;;;;;;;8.98;1.35;;;14.80;99.90;;;;;;5045686;28;20044;-73
2023/05/16 11:11:50;;;;;;;8.82;1.08;;;14.60;99.90;;;;;;5053428;28;20079;-73
2023/05/16 11:14:30;;;;;;;4.40;1.20;;;14.60;99.90;;;;;;5050456;28;20485;-74
2023/05/16 11:17:09;;;;;;;7.15;1.08;;;14.80;99.90;;;;;;5037166;28;20117;-74
2023/05/16 11:19:41;;;;;;;5.57;1.10;;;15.00;99.90;;;;;;5050488;28;20459;-74
2023/05/16 11:22:20;;;;;;;6.57;1.05;;;14.90;99.90;;;;;;5042640;28;20525;-74
2023/05/16 11:24:58;;;;;;;6.53;1.00;;;14.70;99.90;;;;;;5043926;28;20119;-74
2023/05/16 11:27:28;;;;;;;6.35;0.98;;;14.40;98.50;;;;;;5057979;28;20037;-74
2023/05/16 11:29:57;;;;;;;8.93;1.35;;;14.60;99.90;;;;;;5041127;28;20037;-74
2023/05/16 11:32:23;;;;;;;5.18;1.13;;;14.40;99.90;;;;;;5036744;28;20124;-73
2023/05/16 11:34:50;;;;;;;7.20;1.38;;;14.50;99.90;;;;;;5051745;28;20121;-74
2023/05/16 11:37:18;;;;;;;10.68;1.50;;;14.50;99.90;;;;;;5049314;28;20390;-74
2023/05/16 11:39:44;;;;;;;7.25;1.48;;;14.40;99.90;;;;;;5042130;28;20029;-74
2023/05/16 11:42:09;;;;;;;9.30;1.67;;;14.30;99.90;;;;;;5053144;28;20039;-73
2023/05/16 11:44:35;;;;;;;8.43;1.50;;;14.10;99.90;;;;;;5053587;28;20039;-74
2023/05/16 11:47:01;;;;;;;8.27;1.80;;;14.20;99.90;;;;;;5048425;28;20033;-73
2023/05/16 11:49:29;;;;;;;7.50;1.45;;;14.30;99.90;;;;;;5033867;28;20033;-73
2023/05/16 11:51:56;;;;;;;6.25;1.67;;;14.10;99.90;;;;;;5033842;28;20120;-73
2023/05/16 11:54:23;;;;;;;7.38;2.05;;;14.00;99.90;;;;;;5049447;28;20401;-73
2023/05/16 11:56:50;;;;;;;5.40;1.50;;;14.10;99.90;;;;;;5047417;28;20037;-73
2023/05/16 11:59:19;;;;;;;6.50;1.67;;;14.10;99.90;;;;;;5052492;28;20552;-74
2023/05/16 12:01:47;;;;;;;8.35;1.80;;;14.00;99.90;;;;;;5051292;28;20037;-74
2023/05/16 12:04:15;;;;;;;6.63;1.92;;;14.10;99.90;;;;;;5046738;28;20046;-73
2023/05/16 12:06:46;;;;;;;7.72;1.50;;;14.30;99.90;;;;;;5033578;28;20486;-74
2023/05/16 12:09:13;;;;;;;8.35;1.92;;;14.40;99.90;;;;;;5042287;28;20033;-73
2023/05/16 12:11:41;;;;;;;10.48;2.42;;;14.50;99.90;;;;;;5053827;28;20382;-74
2023/05/16 12:14:08;;;;;;;8.35;2.30;;;14.50;99.90;;;;;;5052999;28;20413;-74
2023/05/16 12:16:38;;;;;;;9.35;2.03;;;14.40;99.90;;;;;;5052059;28;20051;-74
2023/05/16 12:19:07;;;;;;;6.40;1.60;;;14.30;99.90;;;;;;5053291;28;20052;-74
2023/05/16 12:21:33;;;;;;;8.15;1.88;;;14.20;99.90;;;;;;5049323;28;20072;-74
2023/05/16 12:23:59;;;;;;;10.25;2.10;;;14.00;99.90;;;;;;5051607;28;20060;-74
2023/05/16 12:26:30;;;;;;;11.20;2.00;;;14.10;99.90;;;;;;5051481;28;20497;-74
2023/05/16 12:28:59;;;;;;;10.57;2.10;;;14.20;99.90;;;;;;5035842;28;20041;-74
2023/05/16 12:31:25;;;;;;;7.07;1.88;;;14.30;99.90;;;;;;5044797;28;20370;-74
2023/05/16 12:33:54;;;;;;;7.53;1.88;;;14.30;99.90;;;;;;5048732;28;20116;-74
2023/05/16 12:36:20;;;;;;;12.20;2.45;;;14.10;99.90;;;;;;5032381;28;20604;-74
2023/05/16 12:38:47;;;;;;;10.10;2.30;;;14.00;99.90;;;;;;5036867;28;20038;-74
2023/05/16 12:41:18;;;;;;;10.45;2.05;;;14.20;99.90;;;;;;5047361;28;20040;-74
2023/05/16 12:43:43;;;;;;;10.55;2.53;;;14.20;99.90;;;;;;5032141;28;20041;-75
2023/05/16 12:46:11;;;;;;;9.18;2.15;;;14.20;99.90;;;;;;5048774;28;20040;-74
2023/05/16 12:48:38;;;;;;;9.90;2.17;;;14.10;99.90;;;;;;5044517;28;20044;-75